Time;durP1;ratioP1;P1;durP2;ratioP2;P2;SDS_P1;SDS_P2;PMS_P1;PMS_P2;Temp;Humidity;BMP_temperature;BMP_pressure;BME280_temperature;BME280_humidity;BME280_pressure;Samples;Min_cycle;Max_cycle;Signal;HPM_P1;HPM_P2
2022/05/31 00:08:41;;;;;;;2.77;1.30;;;12.00;99.90;;;;;;20748038;28;20034;-73
2022/05/31 00:18:42;;;;;;;5.70;1.60;;;11.80;99.90;;;;;;20747316;28;20033;-74
2022/05/31 00:28:42;;;;;;;3.13;1.80;;;11.50;99.90;;;;;;20746463;28;20580;-74
2022/05/31 00:38:43;;;;;;;2.80;1.10;;;11.50;99.90;;;;;;20746500;28;20083;-74
2022/05/31 00:48:50;;;;;;;5.73;1.67;;;11.50;99.90;;;;;;20745314;28;20835;-73
2022/05/31 00:59:04;;;;;;;3.92;1.77;;;11.50;99.90;;;;;;20744656;28;20554;-73
2022/05/31 01:09:06;;;;;;;3.25;1.25;;;11.30;99.90;;;;;;20743030;28;20041;-74
2022/05/31 01:19:55;;;;;;;;;;;11.50;99.90;;;;;;20742812;28;20480;-74
2022/05/31 01:29:34;;;;;;;3.25;1.65;;;11.50;99.90;;;;;;20743160;28;20454;-74
2022/05/31 01:39:39;;;;;;;1.48;1.10;;;11.40;99.90;;;;;;20741708;28;20054;-74
2022/05/31 01:49:44;;;;;;;1.73;1.40;;;11.50;99.90;;;;;;20747209;28;20061;-74
2022/05/31 01:59:48;;;;;;;1.70;1.20;;;11.50;99.90;;;;;;20756645;28;20069;-74
2022/05/31 02:09:51;;;;;;;2.10;1.45;;;11.40;99.90;;;;;;20755739;28;20045;-74
2022/05/31 02:19:59;;;;;;;3.20;1.48;;;11.40;99.90;;;;;;20755067;28;20034;-74
2022/05/31 02:30:09;;;;;;;2.00;1.10;;;11.40;99.90;;;;;;20754483;28;20127;-74
2022/05/31 02:40:10;;;;;;;;;;;11.30;99.90;;;;;;20754571;28;20034;-74
2022/05/31 02:50:11;;;;;;;3.53;1.40;;;11.40;99.90;;;;;;20752705;28;19964;-74
2022/05/31 03:00:14;;;;;;;2.30;1.40;;;11.30;99.90;;;;;;20750581;28;20036;-73
2022/05/31 03:10:38;;;;;;;4.07;1.63;;;11.00;99.90;;;;;;20752523;28;20046;-74
2022/05/31 03:20:47;;;;;;;24.60;3.17;;;11.00;99.90;;;;;;20751554;28;20424;-75
2022/05/31 03:30:49;;;;;;;3.13;1.63;;;11.20;99.90;;;;;;20749367;28;20040;-74
2022/05/31 03:40:58;;;;;;;4.60;1.37;;;10.90;99.90;;;;;;20815192;28;20029;-74
2022/05/31 03:51:22;;;;;;;5.65;2.28;;;10.70;99.90;;;;;;20827448;28;20072;-74
2022/05/31 04:01:25;;;;;;;2.10;1.45;;;10.80;99.90;;;;;;20828717;28;20032;-74
2022/05/31 04:11:26;;;;;;;2.57;1.40;;;10.70;99.90;;;;;;20829014;28;20057;-74
2022/05/31 04:21:32;;;;;;;2.38;1.40;;;10.60;99.90;;;;;;20827406;28;20060;-74
2022/05/31 04:31:33;;;;;;;1.83;1.50;;;10.70;99.90;;;;;;20826638;28;20037;-73
2022/05/31 04:41:56;;;;;;;6.30;1.42;;;10.70;99.90;;;;;;20827085;28;20069;-74
2022/05/31 04:51:58;;;;;;;3.88;1.55;;;11.00;99.90;;;;;;20825242;28;20033;-74
2022/05/31 05:02:02;;;;;;;2.67;1.83;;;11.40;99.90;;;;;;20825922;28;20035;-74
2022/05/31 05:12:17;;;;;;;3.47;1.95;;;11.50;99.90;;;;;;20824227;28;20087;-74
2022/05/31 05:22:22;;;;;;;4.15;1.67;;;12.10;99.90;;;;;;20826002;28;20033;-73
2022/05/31 05:32:23;;;;;;;2.53;2.10;;;12.50;99.90;;;;;;20782343;28;20041;-73
2022/05/31 05:42:56;;;;;;;3.83;2.13;;;12.70;99.90;;;;;;20749593;28;20040;-73
2022/05/31 05:53:09;;;;;;;4.27;2.40;;;12.60;99.90;;;;;;20748756;28;20084;-74
2022/05/31 06:03:21;;;;;;;4.60;2.15;;;12.60;99.90;;;;;;20757297;28;20042;-73
2022/05/31 06:13:35;;;;;;;2.53;1.98;;;12.80;99.90;;;;;;20755396;28;20500;-74
2022/05/31 06:23:37;;;;;;;2.92;2.38;;;12.90;99.90;;;;;;20754935;28;20166;-73
2022/05/31 06:33:39;;;;;;;3.63;1.75;;;13.20;99.90;;;;;;20752993;28;20091;-73
2022/05/31 06:43:41;;;;;;;2.42;1.60;;;14.20;99.90;;;;;;20752856;28;20065;-74
2022/05/31 07:04:46;;;;;;;4.50;1.88;;;15.70;99.90;;;;;;20752549;28;20045;-73
2022/05/31 07:14:47;;;;;;;5.43;1.53;;;16.00;99.90;;;;;;20750154;28;20033;-73
2022/05/31 07:25:17;;;;;;;2.60;1.48;;;16.70;99.90;;;;;;20731165;28;20041;-73
2022/05/31 07:35:29;;;;;;;5.03;1.73;;;17.20;99.90;;;;;;20749726;28;20033;-73
2022/05/31 07:45:32;;;;;;;4.88;1.75;;;17.90;99.90;;;;;;20747214;28;20034;-73
2022/05/31 07:55:34;;;;;;;3.83;1.52;;;18.30;99.90;;;;;;20748048;28;20527;-73
2022/05/31 08:05:53;;;;;;;4.57;1.48;;;18.30;99.90;;;;;;20748599;28;20038;-73
2022/05/31 08:15:57;;;;;;;4.83;1.73;;;20.10;99.90;;;;;;20745734;28;20108;-73
2022/05/31 08:25:58;;;;;;;5.47;1.70;;;19.60;99.90;;;;;;20746921;28;20041;-75
2022/05/31 08:35:59;;;;;;;3.67;1.27;;;20.70;99.90;;;;;;20920187;22;20045;-78
2022/05/31 08:46:07;;;;;;;3.80;1.38;;;21.80;99.90;;;;;;20989326;28;20041;-78
2022/05/31 09:07:06;;;;;;;7.25;1.30;;;22.60;99.90;;;;;;20973221;28;20028;-79
2022/05/31 09:17:35;;;;;;;3.13;1.45;;;22.60;99.90;;;;;;20990276;28;20153;-77
2022/05/31 09:27:43;;;;;;;6.10;1.15;;;21.80;99.90;;;;;;20984340;28;20479;-78
2022/05/31 09:38:10;;;;;;;4.35;1.13;;;22.10;99.90;;;;;;20972546;28;20036;-78
2022/05/31 09:48:11;;;;;;;2.80;0.90;;;21.60;99.90;;;;;;20990256;28;20498;-78
2022/05/31 09:58:36;;;;;;;6.00;1.20;;;23.70;99.90;;;;;;20989345;28;20056;-78
2022/05/31 10:08:48;;;;;;;4.38;1.10;;;23.70;99.90;;;;;;20993630;28;20047;-79
2022/05/31 10:18:53;;;;;;;6.72;1.25;;;23.40;99.90;;;;;;21004376;28;20036;-79
2022/05/31 10:29:00;;;;;;;3.80;1.00;;;22.10;99.90;;;;;;20985221;28;20044;-78
2022/05/31 10:39:26;;;;;;;3.20;1.10;;;21.50;99.90;;;;;;20984865;28;20030;-78
2022/05/31 10:49:27;;;;;;;3.97;1.25;;;21.60;99.90;;;;;;21002173;28;20511;-77
2022/05/31 10:59:33;;;;;;;2.80;1.10;;;20.40;99.90;;;;;;20982342;28;20060;-78
2022/05/31 11:20:37;;;;;;;8.52;2.10;;;20.40;99.90;;;;;;21008771;28;20032;-77
2022/05/31 11:31:07;;;;;;;3.13;1.35;;;20.80;99.90;;;;;;21001635;28;20045;-78
2022/05/31 11:41:20;;;;;;;3.75;1.52;;;20.90;99.90;;;;;;21002856;28;20037;-78
2022/05/31 11:51:45;;;;;;;4.90;1.20;;;21.20;99.90;;;;;;21004994;28;20487;-78
2022/05/31 12:02:08;;;;;;;4.15;1.50;;;22.00;99.90;;;;;;21000415;28;20063;-78
2022/05/31 12:12:15;;;;;;;5.30;1.80;;;22.50;99.90;;;;;;20995848;28;20284;-78
2022/05/31 12:22:22;;;;;;;7.20;1.73;;;23.10;99.90;;;;;;20998125;28;20029;-79
2022/05/31 12:32:37;;;;;;;3.03;1.73;;;23.50;99.90;;;;;;21007192;28;20090;-79
2022/05/31 12:42:39;;;;;;;5.97;1.63;;;24.10;99.90;;;;;;21002425;28;20509;-79
2022/05/31 12:53:43;;;;;;;4.50;1.40;;;24.50;99.90;;;;;;21008236;28;20131;-78
2022/05/31 13:03:34;;;;;;;7.13;1.40;;;23.80;99.90;;;;;;20994148;28;20040;-79
2022/05/31 13:24:12;;;;;;;6.85;1.58;;;22.90;99.90;;;;;;20998943;28;20064;-79
2022/05/31 13:34:26;;;;;;;5.22;1.20;;;23.70;99.90;;;;;;20981062;28;20397;-79
2022/05/31 13:44:34;;;;;;;4.88;1.65;;;23.60;99.90;;;;;;21003631;28;20098;-78
2022/05/31 13:54:42;;;;;;;4.80;1.52;;;23.10;99.90;;;;;;21015945;28;20062;-79
2022/05/31 14:04:44;;;;;;;3.83;1.30;;;22.70;99.90;;;;;;21010400;28;20415;-79
2022/05/31 14:14:48;;;;;;;7.65;1.50;;;22.30;99.90;;;;;;21006321;28;20039;-79
2022/05/31 14:24:53;;;;;;;4.63;1.25;;;21.80;99.90;;;;;;21004851;28;20482;-78
2022/05/31 14:34:54;;;;;;;3.92;0.90;;;21.70;99.90;;;;;;20929024;22;20148;-76
2022/05/31 14:44:54;;;;;;;5.43;0.70;;;21.30;99.90;;;;;;20903349;28;20061;-76
2022/05/31 14:55:26;;;;;;;4.30;1.00;;;20.90;99.90;;;;;;20815781;28;20039;-76
2022/05/31 15:05:28;;;;;;;4.33;0.90;;;20.60;99.90;;;;;;20801646;28;20042;-76
2022/05/31 15:25:56;;;;;;;3.17;1.20;;;20.10;99.90;;;;;;20816767;28;19925;-80
2022/05/31 15:35:57;;;;;;;3.80;1.25;;;18.60;99.90;;;;;;20867052;28;20037;-83
2022/05/31 15:45:57;;;;;;;4.97;1.50;;;17.40;99.90;;;;;;20865339;28;20476;-81
2022/05/31 15:56:01;;;;;;;4.30;1.97;;;16.70;99.90;;;;;;20843217;28;20032;-81
2022/05/31 16:06:02;;;;;;;7.65;4.18;;;17.00;99.90;;;;;;20842101;28;20029;-79
2022/05/31 16:16:03;;;;;;;7.07;2.03;;;16.90;99.90;;;;;;20846118;28;20084;-81
2022/05/31 16:26:04;;;;;;;4.70;1.50;;;16.60;99.90;;;;;;20847046;28;20295;-81
2022/05/31 16:36:22;;;;;;;4.57;1.67;;;16.80;99.90;;;;;;20840371;28;20036;-79
2022/05/31 16:46:25;;;;;;;3.65;1.63;;;17.40;99.90;;;;;;20839521;28;20037;-80
2022/05/31 16:56:31;;;;;;;8.77;4.78;;;17.80;99.90;;;;;;20841163;28;20040;-81
2022/05/31 17:16:52;;;;;;;3.47;1.30;;;18.50;99.90;;;;;;20851122;28;20025;-80
2022/05/31 17:26:52;;;;;;;5.43;1.40;;;18.40;99.90;;;;;;20856635;28;20029;-78
2022/05/31 17:36:54;;;;;;;2.85;1.20;;;18.20;99.90;;;;;;20846953;28;20041;-79
2022/05/31 17:46:55;;;;;;;2.70;1.40;;;17.80;99.90;;;;;;20839898;28;20032;-79
2022/05/31 17:56:57;;;;;;;2.13;1.37;;;17.70;99.90;;;;;;20840681;28;20033;-79
2022/05/31 18:06:58;;;;;;;2.50;1.42;;;17.40;99.90;;;;;;20822500;28;20036;-79
2022/05/31 18:16:59;;;;;;;21.90;8.02;;;17.20;99.90;;;;;;20840209;28;21996;-78
2022/05/31 18:27:06;;;;;;;2.80;1.40;;;17.00;99.90;;;;;;20842228;28;20371;-79
2022/05/31 18:47:15;;;;;;;2.88;1.60;;;16.40;99.90;;;;;;20852975;28;20034;-79
2022/05/31 18:57:16;;;;;;;3.92;1.65;;;16.40;99.90;;;;;;20858247;28;20045;-80
2022/05/31 19:07:17;;;;;;;3.67;1.70;;;16.40;99.90;;;;;;20858506;28;20403;-79
2022/05/31 19:17:18;;;;;;;1.37;1.17;;;16.30;99.90;;;;;;20857702;28;20030;-80
2022/05/31 19:27:19;;;;;;;4.90;1.23;;;15.90;99.90;;;;;;20864480;28;20041;-80
2022/05/31 19:37:21;;;;;;;1.93;1.50;;;15.60;99.90;;;;;;20862837;28;20096;-78
2022/05/31 19:47:22;;;;;;;2.40;1.35;;;15.30;99.90;;;;;;20854711;28;20120;-80
2022/05/31 19:57:26;;;;;;;5.63;2.00;;;15.00;99.90;;;;;;20856075;28;20033;-80
2022/05/31 20:07:27;;;;;;;5.15;2.10;;;14.40;99.90;;;;;;20858156;28;20128;-77
2022/05/31 20:17:29;;;;;;;3.20;1.53;;;14.40;99.90;;;;;;20854259;28;20503;-78
2022/05/31 20:27:30;;;;;;;4.07;2.22;;;14.60;99.90;;;;;;20884773;22;20051;-73
2022/05/31 20:37:31;;;;;;;3.10;1.77;;;13.90;99.90;;;;;;20832606;28;20041;-74
2022/05/31 20:47:32;;;;;;;3.30;2.17;;;13.90;99.90;;;;;;20825935;28;20041;-74
2022/05/31 20:57:33;;;;;;;;;;;13.70;99.90;;;;;;20823897;28;20030;-74
2022/05/31 21:07:35;;;;;;;9.30;2.60;;;13.30;99.90;;;;;;20821949;28;19909;-73
2022/05/31 21:17:35;;;;;;;;;;;12.90;99.90;;;;;;20824101;28;20534;-73
2022/05/31 21:27:36;;;;;;;3.87;1.97;;;12.70;99.90;;;;;;20825617;28;19913;-73
2022/05/31 21:37:37;;;;;;;4.03;2.27;;;12.20;99.90;;;;;;20825199;28;20283;-74
2022/05/31 21:47:38;;;;;;;3.17;2.30;;;11.90;99.90;;;;;;20830746;28;20044;-74
2022/05/31 21:57:41;;;;;;;3.70;2.13;;;11.60;99.90;;;;;;20822766;28;20120;-74
2022/05/31 22:07:42;;;;;;;4.07;2.45;;;11.80;99.90;;;;;;20846564;28;20042;-74
2022/05/31 22:17:43;;;;;;;6.20;2.47;;;11.70;99.90;;;;;;20839094;28;20029;-73
2022/05/31 22:27:50;;;;;;;4.47;3.07;;;11.50;99.90;;;;;;20838034;28;20148;-73
2022/05/31 22:37:59;;;;;;;4.85;2.65;;;11.40;99.90;;;;;;20836597;28;20033;-74
2022/05/31 22:48:00;;;;;;;3.78;2.40;;;11.20;99.90;;;;;;20835820;28;20038;-74
2022/05/31 22:58:03;;;;;;;4.63;2.10;;;11.10;99.90;;;;;;20834873;28;20036;-73
2022/05/31 23:08:04;;;;;;;3.80;2.28;;;11.10;99.90;;;;;;20834229;28;20377;-73
2022/05/31 23:18:08;;;;;;;4.87;2.20;;;11.10;99.90;;;;;;20833395;28;20025;-73
2022/05/31 23:28:10;;;;;;;13.15;2.55;;;11.00;99.90;;;;;;20831073;28;20188;-73
2022/05/31 23:38:11;;;;;;;7.40;2.80;;;11.00;99.90;;;;;;20832352;28;20033;-73
2022/05/31 23:48:13;;;;;;;4.37;2.40;;;10.70;99.90;;;;;;20834569;28;20068;-73
2022/05/31 23:58:15;;;;;;;6.35;3.45;;;10.50;99.90;;;;;;20830969;28;20033;-73
